CDT,Max TemperatureF,Mean TemperatureF,Min TemperatureF,Max Dew PointF,MeanDew PointF,Min DewpointF,Max Humidity, Mean Humidity, Min Humidity, Max Sea Level PressureIn, Mean Sea Level PressureIn, Min Sea Level PressureIn, Max VisibilityMiles, Mean VisibilityMiles, Min VisibilityMiles, Max Wind SpeedMPH, Mean Wind SpeedMPH, Max Gust SpeedMPH,PrecipitationIn, CloudCover, Events, WindDirDegrees
2013-10-1,82,74,65,68,65,62,87,73,58,30.03,29.98,29.93,10,8,5,15,7,18,0.00,5,,172
2013-10-2,85,77,69,70,67,64,90,71,51,30.06,30.00,29.94,10,8,4,15,4,18,0.18,5,Rain,182
2013-10-3,88,79,70,68,66,64,90,69,48,29.95,29.91,29.85,10,10,7,18,10,25,0.13,4,Rain,185
2013-10-4,89,80,71,69,67,65,84,65,46,29.96,29.92,29.88,10,10,7,20,10,26,0.00,4,,179
2013-10-5,80,68,56,70,64,51,93,76,58,29.96,29.90,29.84,10,9,3,21,9,31,0.23,7,Rain,237
2013-10-6,60,55,50,50,43,36,83,63,43,29.92,29.88,29.86,10,10,6,26,12,33,0.01,5,Rain,248
2013-10-7,71,61,51,48,45,42,83,59,35,30.14,30.03,29.92,10,10,9,18,7,24,0.00,4,,289
2013-10-8,76,63,50,50,46,44,83,58,33,30.20,30.16,30.12,10,10,8,15,5,18,0.00,0,,125
2013-10-9,75,62,49,52,47,44,86,62,38,30.19,30.13,30.09,10,10,10,10,4,15,0.00,1,,101
2013-10-10,80,68,56,61,55,52,87,65,42,30.15,30.07,29.99,10,10,7,15,5,18,0.00,2,,155
2013-10-11,81,69,57,60,56,51,87,62,36,30.04,29.97,29.89,10,10,6,21,9,25,0.00,1,,154
2013-10-12,79,68,56,62,55,40,87,66,44,30.20,30.03,29.93,10,9,4,15,6,20,0.02,4,Rain,259
2013-10-13,74,61,48,43,37,31,74,47,20,30.38,30.32,30.21,10,10,9,12,4,15,0.00,0,,23
2013-10-14,68,58,48,52,41,32,67,53,39,30.34,30.23,30.06,10,10,10,14,8,16,T,6,,101
2013-10-15,69,62,55,63,58,47,93,80,67,30.04,29.94,29.89,10,7,1,16,10,22,0.48,8,Rain,194
2013-10-16,60,54,47,45,41,39,77,62,47,30.06,30.02,29.98,10,10,9,17,7,22,T,4,,289
2013-10-17,66,58,49,46,42,36,86,59,32,30.01,29.97,29.92,10,10,9,17,8,22,0.02,4,Rain,251
2013-10-18,62,53,44,42,39,33,89,63,36,30.07,30.01,29.95,10,10,7,15,8,20,0.10,3,Rain,292
2013-10-19,59,51,42,41,38,32,89,64,39,30.04,30.01,29.96,10,9,6,21,10,26,0.17,5,Rain,264
2013-10-20,73,61,48,42,38,36,61,44,27,29.96,29.92,29.85,10,10,10,23,12,29,0.00,1,,213
2013-10-21,57,49,40,43,38,31,74,56,38,30.08,30.01,29.91,10,10,9,16,7,21,0.00,5,,290
2013-10-22,62,50,38,47,38,33,86,65,43,30.07,29.96,29.81,10,10,3,25,9,35,0.10,5,Rain,256
2013-10-23,51,44,37,36,33,26,85,62,39,30.16,30.10,30.02,10,10,7,17,9,24,0.02,7,Rain,309
2013-10-24,49,41,32,36,29,23,85,62,38,30.44,30.29,30.15,10,10,9,23,9,29,T,4,Rain,317
2013-10-25,56,43,30,29,26,23,85,57,29,30.55,30.43,30.23,10,10,10,13,4,16,0.00,1,,213
2013-10-26,66,52,38,40,31,25,56,45,34,30.22,30.12,30.02,10,10,10,17,10,29,0.00,3,,268
2013-10-27,61,47,33,31,28,24,82,54,25,30.15,30.10,30.04,10,10,10,8,3,15,0.00,1,,219
2013-10-28,69,53,36,43,37,30,82,59,35,30.25,30.17,30.06,10,10,10,10,4,13,0.00,3,,123
2013-10-29,59,53,47,56,48,36,93,74,54,30.27,30.16,30.07,10,6,1,15,8,17,0.13,8,Rain,126
2013-10-30,73,65,57,66,60,55,100,87,73,30.07,29.99,29.82,10,5,0,15,9,22,0.02,7,Fog-Rain,140
2013-10-31,68,59,49,63,58,45,93,86,78,29.83,29.58,29.40,10,7,2,29,10,36,0.74,7,Rain,221